createdAt,value
2023-05-14T00:00:05.981Z,34.09
2023-05-14T00:01:05.995Z,34.05
2023-05-14T00:02:06.081Z,34.01
2023-05-14T00:03:06.247Z,34.03
2023-05-14T00:04:06.151Z,34.04
2023-05-14T00:05:06.122Z,34.00
2023-05-14T00:06:06.144Z,34.05
2023-05-14T00:07:06.168Z,34.03
2023-05-14T00:08:06.211Z,34.01
2023-05-14T00:09:06.261Z,34.01
2023-05-14T00:10:06.242Z,33.95
2023-05-14T00:11:06.267Z,33.96
2023-05-14T00:12:06.283Z,33.96
2023-05-14T00:13:06.305Z,33.92
2023-05-14T00:14:06.354Z,33.96
2023-05-14T00:15:06.384Z,33.94
2023-05-14T00:16:06.452Z,33.91
2023-05-14T00:17:06.418Z,33.94
2023-05-14T00:18:06.470Z,33.90
2023-05-14T00:19:06.590Z,33.90
2023-05-14T00:20:06.511Z,33.86
2023-05-14T00:21:06.523Z,33.89
2023-05-14T00:22:06.570Z,33.91
2023-05-14T00:23:06.614Z,33.92
2023-05-14T00:24:06.656Z,33.91
2023-05-14T00:25:06.637Z,33.93
2023-05-14T00:26:06.664Z,33.86
2023-05-14T00:27:06.706Z,33.88
2023-05-14T00:28:06.743Z,33.86
2023-05-14T00:29:06.772Z,33.85
2023-05-14T00:30:06.838Z,33.86
2023-05-14T00:31:06.840Z,33.81
2023-05-14T00:32:06.855Z,33.85
2023-05-14T00:33:06.941Z,33.82
2023-05-14T00:34:06.887Z,33.82
2023-05-14T00:35:06.914Z,33.77
2023-05-14T00:36:06.960Z,33.74
2023-05-14T00:37:06.988Z,33.79
2023-05-14T00:38:07.008Z,33.75
2023-05-14T00:39:07.043Z,33.68
2023-05-14T00:40:07.072Z,33.78
2023-05-14T00:41:07.106Z,33.71
2023-05-14T00:42:07.126Z,33.72
2023-05-14T00:43:07.145Z,33.72
2023-05-14T00:44:07.171Z,33.68
2023-05-14T00:45:07.189Z,33.66
2023-05-14T00:46:07.251Z,33.68
2023-05-14T00:47:07.341Z,33.67
2023-05-14T00:48:07.340Z,33.72
2023-05-14T00:49:07.301Z,33.71
2023-05-14T00:50:07.349Z,33.63
2023-05-14T00:51:07.376Z,33.67
2023-05-14T00:52:07.405Z,33.68
2023-05-14T00:53:07.425Z,33.64
2023-05-14T00:54:07.451Z,33.65
2023-05-14T00:55:07.533Z,33.63
2023-05-14T00:56:07.515Z,33.62
2023-05-14T00:57:07.545Z,33.61
2023-05-14T00:58:07.598Z,33.54
2023-05-14T00:59:07.616Z,33.59
2023-05-14T01:00:07.636Z,33.60
2023-05-14T01:01:07.724Z,33.57
2023-05-14T01:02:07.698Z,33.50
2023-05-14T01:03:07.934Z,33.49
2023-05-14T01:04:07.876Z,33.49
2023-05-14T01:05:07.789Z,33.48
2023-05-14T01:06:07.829Z,33.42
2023-05-14T01:07:07.837Z,33.46
2023-05-14T01:08:07.873Z,33.41
2023-05-14T01:09:07.920Z,33.37
2023-05-14T01:10:07.950Z,33.37
2023-05-14T01:11:07.973Z,33.31
2023-05-14T01:12:08.029Z,33.37
2023-05-14T01:13:08.045Z,33.33
2023-05-14T01:14:08.096Z,33.34
2023-05-14T01:15:08.108Z,33.30
2023-05-14T01:16:08.152Z,33.30
2023-05-14T01:17:08.174Z,33.26
2023-05-14T01:18:08.268Z,33.23
2023-05-14T01:19:08.333Z,33.25
2023-05-14T01:20:08.288Z,33.26
2023-05-14T01:21:08.325Z,33.22
2023-05-14T01:22:08.372Z,33.20
2023-05-14T01:23:08.398Z,33.22
2023-05-14T01:24:08.445Z,33.19
2023-05-14T01:25:08.474Z,33.19
2023-05-14T01:26:08.483Z,33.19
2023-05-14T01:27:08.526Z,33.15
2023-05-14T01:28:08.550Z,33.18
2023-05-14T01:29:08.606Z,33.18
2023-05-14T01:30:08.635Z,33.16
2023-05-14T01:31:08.669Z,33.19
2023-05-14T01:32:08.758Z,33.15
2023-05-14T01:33:08.731Z,33.18
2023-05-14T01:34:08.766Z,33.15
2023-05-14T01:35:08.804Z,33.16
2023-05-14T01:36:08.812Z,33.12
2023-05-14T01:37:08.843Z,33.18
2023-05-14T01:38:08.895Z,33.18
2023-05-14T01:39:08.919Z,33.15
2023-05-14T01:40:08.960Z,33.08
2023-05-14T01:41:08.984Z,33.15
2023-05-14T01:42:09.014Z,33.12
2023-05-14T01:43:09.128Z,33.11
2023-05-14T01:44:09.068Z,33.16
2023-05-14T01:45:09.126Z,33.12
2023-05-14T01:46:09.197Z,33.11
2023-05-14T01:47:09.171Z,33.13
2023-05-14T01:48:09.280Z,33.11
2023-05-14T01:49:09.233Z,33.13
2023-05-14T01:50:09.287Z,33.07
2023-05-14T01:51:09.302Z,33.08
2023-05-14T01:52:09.338Z,33.08
2023-05-14T01:53:09.391Z,33.08
2023-05-14T01:54:09.424Z,33.05
2023-05-14T01:55:09.443Z,33.09
2023-05-14T01:56:09.473Z,33.05
2023-05-14T01:57:09.501Z,33.02
2023-05-14T01:58:09.556Z,33.06
2023-05-14T01:59:09.578Z,33.06
2023-05-14T02:00:09.610Z,33.01
2023-05-14T02:01:09.692Z,33.05
2023-05-14T02:02:09.686Z,33.04
2023-05-14T02:03:09.740Z,33.00
2023-05-14T02:04:09.888Z,33.02
2023-05-14T02:05:09.824Z,32.96
2023-05-14T02:06:09.830Z,33.01
2023-05-14T02:07:09.843Z,33.01
2023-05-14T02:08:09.901Z,32.93
2023-05-14T02:09:09.924Z,33.01
2023-05-14T02:10:09.973Z,32.98
2023-05-14T02:11:09.982Z,33.01
2023-05-14T02:12:10.016Z,32.94
2023-05-14T02:13:10.049Z,32.94
2023-05-14T02:14:10.073Z,32.95
2023-05-14T02:15:10.141Z,32.91
2023-05-14T02:16:10.200Z,32.93
2023-05-14T02:17:10.209Z,32.91
2023-05-14T02:18:10.273Z,32.98
2023-05-14T02:19:10.369Z,32.93
2023-05-14T02:20:10.362Z,32.94
2023-05-14T02:21:10.330Z,32.91
2023-05-14T02:22:10.346Z,32.95
2023-05-14T02:23:10.399Z,32.90
2023-05-14T02:24:10.407Z,32.90
2023-05-14T02:25:10.453Z,32.89
2023-05-14T02:26:10.521Z,32.91
2023-05-14T02:27:10.523Z,32.90
2023-05-14T02:28:10.575Z,32.89
2023-05-14T02:29:10.598Z,32.86
2023-05-14T02:30:10.617Z,32.91
2023-05-14T02:31:10.731Z,32.87
2023-05-14T02:32:10.717Z,32.85
2023-05-14T02:33:10.823Z,32.86
2023-05-14T02:34:10.768Z,32.82
2023-05-14T02:35:10.804Z,32.82
2023-05-14T02:36:10.832Z,32.85
2023-05-14T02:37:10.855Z,32.85
2023-05-14T02:38:10.887Z,32.79
2023-05-14T02:39:10.936Z,32.82
2023-05-14T02:40:10.936Z,32.83
2023-05-14T02:41:10.989Z,32.82
2023-05-14T02:42:10.999Z,32.82
2023-05-14T02:43:11.038Z,32.82
2023-05-14T02:44:11.057Z,32.78
2023-05-14T02:45:11.096Z,32.78
2023-05-14T02:46:11.140Z,32.78
2023-05-14T02:47:11.267Z,32.76
2023-05-14T02:48:11.247Z,32.78
2023-05-14T02:49:11.302Z,32.75
2023-05-14T02:50:11.271Z,32.72
2023-05-14T02:51:11.301Z,32.75
2023-05-14T02:52:11.327Z,32.72
2023-05-14T02:53:11.346Z,32.72
2023-05-14T02:54:11.378Z,32.75
2023-05-14T02:55:11.404Z,32.71
2023-05-14T02:56:11.440Z,32.68
2023-05-14T02:57:11.475Z,32.71
2023-05-14T02:58:11.507Z,32.68
2023-05-14T02:59:11.544Z,32.64
2023-05-14T03:00:11.570Z,32.70
2023-05-14T03:01:11.664Z,32.67
2023-05-14T03:02:11.676Z,32.68
2023-05-14T03:03:11.709Z,32.64
2023-05-14T03:04:11.704Z,32.63
2023-05-14T03:05:11.728Z,32.65
2023-05-14T03:06:11.768Z,32.65
2023-05-14T03:07:11.774Z,32.63
2023-05-14T03:08:11.876Z,32.65
2023-05-14T03:09:11.837Z,32.67
2023-05-14T03:10:11.888Z,32.65
2023-05-14T03:11:11.918Z,32.62
2023-05-14T03:12:11.932Z,32.65
2023-05-14T03:13:11.957Z,32.62
2023-05-14T03:14:12.009Z,32.61
2023-05-14T03:15:12.016Z,32.59
2023-05-14T03:16:12.108Z,32.61
2023-05-14T03:17:12.135Z,32.65
2023-05-14T03:18:12.137Z,32.58
2023-05-14T03:19:12.345Z,32.59
2023-05-14T03:20:12.179Z,32.59
2023-05-14T03:21:12.210Z,32.60
2023-05-14T03:22:12.238Z,32.57
2023-05-14T03:23:12.265Z,32.57
2023-05-14T03:24:12.302Z,32.62
2023-05-14T03:25:12.330Z,32.57
2023-05-14T03:26:12.356Z,32.60
2023-05-14T03:27:12.379Z,32.58
2023-05-14T03:28:12.409Z,32.57
2023-05-14T03:29:12.453Z,32.59
2023-05-14T03:30:12.494Z,32.57
2023-05-14T03:31:12.562Z,32.59
2023-05-14T03:32:12.538Z,32.53
2023-05-14T03:33:12.639Z,32.60
2023-05-14T03:34:12.596Z,32.56
2023-05-14T03:35:12.639Z,32.54
2023-05-14T03:36:12.663Z,32.55
2023-05-14T03:37:12.691Z,32.58
2023-05-14T03:38:12.731Z,32.55
2023-05-14T03:39:12.766Z,32.56
2023-05-14T03:40:12.779Z,32.54
2023-05-14T03:41:12.838Z,32.59
2023-05-14T03:42:12.860Z,32.64
2023-05-14T03:43:12.893Z,32.57
2023-05-14T03:44:12.916Z,32.56
2023-05-14T03:45:12.945Z,32.59
2023-05-14T03:46:12.976Z,32.58
2023-05-14T03:47:13.016Z,32.58
2023-05-14T03:48:13.128Z,32.57
2023-05-14T03:49:13.049Z,32.51
2023-05-14T03:50:13.087Z,32.56
2023-05-14T03:51:13.112Z,32.58
2023-05-14T03:52:13.162Z,32.56
2023-05-14T03:53:13.175Z,32.58
2023-05-14T03:54:13.202Z,32.53
2023-05-14T03:55:13.231Z,32.53
2023-05-14T03:56:13.270Z,32.50
2023-05-14T03:57:13.313Z,32.48
2023-05-14T03:58:13.319Z,32.54
2023-05-14T03:59:13.361Z,32.47
2023-05-14T04:00:13.385Z,32.53
2023-05-14T04:01:13.437Z,32.50
2023-05-14T04:02:13.585Z,32.46
2023-05-14T04:03:13.575Z,32.47
2023-05-14T04:04:13.571Z,32.49
2023-05-14T04:05:13.546Z,32.48
2023-05-14T04:06:13.579Z,32.46
2023-05-14T04:07:13.590Z,32.42
2023-05-14T04:08:13.622Z,32.37
2023-05-14T04:09:13.644Z,32.42
2023-05-14T04:10:13.689Z,32.30
2023-05-14T04:11:13.725Z,32.31
2023-05-14T04:12:13.753Z,32.30
2023-05-14T04:13:13.766Z,32.27
2023-05-14T04:14:13.797Z,32.29
2023-05-14T04:15:13.847Z,32.24
2023-05-14T04:16:13.913Z,32.26
2023-05-14T04:17:13.958Z,32.24
2023-05-14T04:18:14.075Z,32.20
2023-05-14T04:19:14.022Z,32.17
2023-05-14T04:20:13.981Z,32.14
2023-05-14T04:21:14.024Z,32.11
2023-05-14T04:22:14.039Z,32.08
2023-05-14T04:23:14.079Z,32.11
2023-05-14T04:24:14.104Z,31.99
2023-05-14T04:25:14.176Z,32.03
2023-05-14T04:26:14.170Z,32.04
2023-05-14T04:27:14.203Z,31.99
2023-05-14T04:28:14.252Z,31.99
2023-05-14T04:29:14.254Z,32.01
2023-05-14T04:30:14.298Z,31.99
2023-05-14T04:31:14.335Z,31.99
2023-05-14T04:32:14.337Z,31.98
2023-05-14T04:33:14.370Z,31.95
2023-05-14T04:34:14.414Z,31.95
2023-05-14T04:35:14.444Z,31.91
2023-05-14T04:36:14.473Z,31.98
2023-05-14T04:37:14.528Z,31.93
2023-05-14T04:38:14.556Z,31.90
2023-05-14T04:39:14.592Z,31.92
2023-05-14T04:40:14.598Z,31.91
2023-05-14T04:41:14.669Z,31.94
2023-05-14T04:42:14.655Z,31.88
2023-05-14T04:43:14.736Z,31.91
2023-05-14T04:44:14.719Z,31.92
2023-05-14T04:45:14.852Z,31.94
2023-05-14T04:46:14.828Z,31.90
2023-05-14T04:47:14.823Z,31.90
2023-05-14T04:48:14.833Z,31.91
2023-05-14T04:49:14.876Z,31.86
2023-05-14T04:50:14.898Z,31.87
2023-05-14T04:51:14.930Z,31.81
2023-05-14T04:52:14.957Z,31.84
2023-05-14T04:53:14.982Z,31.84
2023-05-14T04:54:15.043Z,31.83
2023-05-14T04:55:15.058Z,31.86
2023-05-14T04:56:15.093Z,31.82
2023-05-14T04:57:15.133Z,31.86
2023-05-14T04:58:15.134Z,31.84
2023-05-14T04:59:15.183Z,31.83
2023-05-14T05:00:15.216Z,31.79
2023-05-14T05:01:15.369Z,31.78
2023-05-14T05:02:15.271Z,31.80
2023-05-14T05:03:15.390Z,31.80
2023-05-14T05:04:15.525Z,31.76
2023-05-14T05:05:15.378Z,31.76
2023-05-14T05:06:15.410Z,31.75
2023-05-14T05:07:15.425Z,31.76
2023-05-14T05:08:15.456Z,31.75
2023-05-14T05:09:15.482Z,31.71
2023-05-14T05:10:15.525Z,31.79
2023-05-14T05:11:15.566Z,31.75
2023-05-14T05:12:15.589Z,31.69
2023-05-14T05:13:15.597Z,31.74
2023-05-14T05:14:15.643Z,31.75
2023-05-14T05:15:15.676Z,31.73
2023-05-14T05:16:15.816Z,31.77
2023-05-14T05:17:15.740Z,31.72
2023-05-14T05:18:15.766Z,31.76
2023-05-14T05:19:15.900Z,31.71
2023-05-14T05:20:15.846Z,31.71
2023-05-14T05:21:15.870Z,31.75
2023-05-14T05:22:15.882Z,31.71
2023-05-14T05:23:15.924Z,31.70
2023-05-14T05:24:15.947Z,31.70
2023-05-14T05:25:16.017Z,31.73
2023-05-14T05:26:16.011Z,31.68
2023-05-14T05:27:16.054Z,31.68
2023-05-14T05:28:16.067Z,31.71
2023-05-14T05:29:16.110Z,31.67
2023-05-14T05:30:16.168Z,31.70
2023-05-14T05:31:17.636Z,31.67
2023-05-14T05:32:16.167Z,31.70
2023-05-14T05:33:16.182Z,31.71
2023-05-14T05:34:16.156Z,31.64
2023-05-14T05:35:16.168Z,31.64
2023-05-14T05:36:16.131Z,31.67
2023-05-14T05:37:16.131Z,31.61
2023-05-14T05:38:16.124Z,31.63
2023-05-14T05:39:16.122Z,31.61
2023-05-14T05:40:16.103Z,31.59
2023-05-14T05:41:16.095Z,31.57
2023-05-14T05:42:16.096Z,31.57
2023-05-14T05:43:16.086Z,31.53
2023-05-14T05:44:16.078Z,31.59
2023-05-14T05:45:16.059Z,31.57
2023-05-14T05:46:16.068Z,31.55
2023-05-14T05:47:16.056Z,31.49
2023-05-14T05:48:16.044Z,31.60
2023-05-14T05:49:16.031Z,31.57
2023-05-14T05:50:16.376Z,31.60
2023-05-14T05:51:16.017Z,31.56
2023-05-14T05:52:16.007Z,31.52
2023-05-14T05:53:16.011Z,31.60
2023-05-14T05:54:16.001Z,31.52
2023-05-14T05:55:15.989Z,31.63
2023-05-14T05:56:16.006Z,31.53
2023-05-14T05:57:15.986Z,31.55
2023-05-14T05:58:15.977Z,31.53
2023-05-14T05:59:15.956Z,31.60
2023-05-14T06:00:15.943Z,31.57
2023-05-14T06:01:15.959Z,31.53
2023-05-14T06:02:16.043Z,31.53
2023-05-14T06:03:15.949Z,31.52
2023-05-14T06:04:15.914Z,31.53
2023-05-14T06:05:15.971Z,31.51
2023-05-14T06:06:15.919Z,31.48
2023-05-14T06:07:15.913Z,31.51
2023-05-14T06:08:15.902Z,31.50
2023-05-14T06:09:15.891Z,31.48
2023-05-14T06:10:15.880Z,31.43
2023-05-14T06:11:15.868Z,31.42
2023-05-14T06:12:15.868Z,31.38
2023-05-14T06:13:15.842Z,31.35
2023-05-14T06:14:15.833Z,31.34
2023-05-14T06:15:15.854Z,31.30
2023-05-14T06:16:15.873Z,31.30
2023-05-14T06:17:15.826Z,31.25
2023-05-14T06:18:15.818Z,31.22
2023-05-14T06:19:16.000Z,31.18
2023-05-14T06:20:15.816Z,31.19
2023-05-14T06:21:15.783Z,31.16
2023-05-14T06:22:15.779Z,31.18
2023-05-14T06:23:15.770Z,31.18
2023-05-14T06:24:15.758Z,31.18
2023-05-14T06:25:15.757Z,31.16
2023-05-14T06:26:15.761Z,31.12
2023-05-14T06:27:15.767Z,31.12
2023-05-14T06:28:15.750Z,31.11
2023-05-14T06:29:15.739Z,31.11
2023-05-14T06:30:15.737Z,31.16
2023-05-14T06:31:15.744Z,31.11
2023-05-14T06:32:15.855Z,31.07
2023-05-14T06:33:15.796Z,31.07
2023-05-14T06:34:15.814Z,31.07
2023-05-14T06:35:15.855Z,31.07
2023-05-14T06:36:15.916Z,31.05
2023-05-14T06:37:15.895Z,31.07
2023-05-14T06:38:15.938Z,31.04
2023-05-14T06:39:15.957Z,31.03
2023-05-14T06:40:15.974Z,31.03
2023-05-14T06:41:16.022Z,31.01
2023-05-14T06:42:16.025Z,30.94
2023-05-14T06:43:16.046Z,30.99
2023-05-14T06:44:16.085Z,30.92
2023-05-14T06:45:16.120Z,30.96
2023-05-14T06:46:16.127Z,30.88
2023-05-14T06:47:16.157Z,30.93
2023-05-14T06:48:16.208Z,30.89
2023-05-14T06:49:16.246Z,30.94
2023-05-14T06:50:16.215Z,30.89
2023-05-14T06:51:16.250Z,30.86
2023-05-14T06:52:16.264Z,30.82
2023-05-14T06:53:16.311Z,30.80
2023-05-14T06:54:16.302Z,30.77
2023-05-14T06:55:16.355Z,30.75
2023-05-14T06:56:16.368Z,30.78
2023-05-14T06:57:16.369Z,30.81
2023-05-14T06:58:16.371Z,30.77
2023-05-14T06:59:16.385Z,30.82
2023-05-14T07:00:16.388Z,30.80
2023-05-14T07:01:16.522Z,30.76
2023-05-14T07:02:16.416Z,30.72
2023-05-14T07:03:16.453Z,30.75
2023-05-14T07:04:16.506Z,30.80
2023-05-14T07:05:16.497Z,30.76
2023-05-14T07:06:16.459Z,30.74
2023-05-14T07:07:16.493Z,30.79
2023-05-14T07:08:16.488Z,30.78
2023-05-14T07:09:16.524Z,30.81
2023-05-14T07:10:16.524Z,30.75
2023-05-14T07:11:16.540Z,30.81
2023-05-14T07:12:16.531Z,30.83
2023-05-14T07:13:16.537Z,30.81
2023-05-14T07:14:16.564Z,30.76
2023-05-14T07:15:16.591Z,30.77
2023-05-14T07:16:16.580Z,30.76
2023-05-14T07:17:16.728Z,30.73
2023-05-14T07:18:16.668Z,30.80
2023-05-14T07:19:16.666Z,30.71
2023-05-14T07:20:16.573Z,30.74
2023-05-14T07:21:16.586Z,30.67
2023-05-14T07:22:16.582Z,30.74
2023-05-14T07:24:16.607Z,30.66
2023-05-14T07:25:16.594Z,30.61
2023-05-14T07:26:16.608Z,30.60
2023-05-14T07:27:16.608Z,30.61
2023-05-14T07:28:16.584Z,30.56
2023-05-14T07:29:16.581Z,30.46
2023-05-14T07:30:16.597Z,30.43
2023-05-14T07:31:16.684Z,30.37
2023-05-14T07:32:16.615Z,30.41
2023-05-14T07:33:16.610Z,30.39
2023-05-14T07:34:16.627Z,30.35
2023-05-14T07:35:16.635Z,30.28
2023-05-14T07:36:16.627Z,30.24
2023-05-14T07:37:16.669Z,30.22
2023-05-14T07:38:16.656Z,30.24
2023-05-14T07:39:16.683Z,30.19
2023-05-14T07:40:16.690Z,30.17
2023-05-14T07:41:16.716Z,30.13
2023-05-14T07:42:27.950Z,30.09
2023-05-14T07:43:17.725Z,30.07
2023-05-14T07:44:16.721Z,30.06
2023-05-14T07:45:16.694Z,30.01
2023-05-14T07:46:16.707Z,30.05
2023-05-14T07:47:16.761Z,29.97
2023-05-14T07:48:16.710Z,29.99
2023-05-14T07:49:16.668Z,29.97
2023-05-14T07:50:16.710Z,29.89
2023-05-14T07:51:16.688Z,29.82
2023-05-14T07:52:16.705Z,29.82
2023-05-14T07:53:16.768Z,29.81
2023-05-14T07:54:16.784Z,29.79
2023-05-14T07:55:16.882Z,29.76
2023-05-14T07:56:16.969Z,29.74
2023-05-14T07:57:16.982Z,29.76
2023-05-14T07:58:17.022Z,29.79
2023-05-14T07:59:17.076Z,29.79
2023-05-14T08:00:17.134Z,29.82
2023-05-14T08:01:17.148Z,29.83
2023-05-14T08:02:17.437Z,29.82
2023-05-14T08:03:17.334Z,29.81
2023-05-14T08:04:17.336Z,29.70
2023-05-14T08:05:17.360Z,29.73
2023-05-14T08:06:17.469Z,29.67
2023-05-14T08:07:17.513Z,29.63
2023-05-14T08:08:17.551Z,29.62
2023-05-14T08:09:17.610Z,29.60
2023-05-14T08:10:17.665Z,29.63
2023-05-14T08:11:17.781Z,29.49
2023-05-14T08:12:17.768Z,29.49
2023-05-14T08:13:17.827Z,29.51
2023-05-14T08:14:17.901Z,29.48
2023-05-14T08:15:17.965Z,29.47
2023-05-14T08:16:18.059Z,29.48
2023-05-14T08:17:18.176Z,29.42
2023-05-14T08:18:18.130Z,29.37
2023-05-14T08:19:18.177Z,29.37
2023-05-14T08:20:18.228Z,29.32
2023-05-14T08:21:18.278Z,29.31
2023-05-14T08:22:18.316Z,29.26
2023-05-14T08:23:18.365Z,29.18
2023-05-14T08:24:18.396Z,29.16
2023-05-14T08:25:18.435Z,29.08
2023-05-14T08:26:18.481Z,28.97
2023-05-14T08:27:18.516Z,29.03
2023-05-14T08:28:18.528Z,28.98
2023-05-14T08:29:18.577Z,28.94
2023-05-14T08:30:18.615Z,28.98
2023-05-14T08:31:18.704Z,28.93
2023-05-14T08:32:23.472Z,28.90
2023-05-14T08:33:19.643Z,28.85
2023-05-14T08:34:18.668Z,28.88
2023-05-14T08:35:18.641Z,28.84
2023-05-14T08:36:18.622Z,28.88
2023-05-14T08:37:18.615Z,28.82
2023-05-14T08:38:18.623Z,28.83
2023-05-14T08:39:18.607Z,28.72
2023-05-14T08:40:18.591Z,28.70
2023-05-14T08:41:18.606Z,28.74
2023-05-14T08:42:18.603Z,28.69
2023-05-14T08:43:18.593Z,28.70
2023-05-14T08:44:18.580Z,28.61
2023-05-14T08:45:18.578Z,28.58
2023-05-14T08:46:18.577Z,28.60
2023-05-14T08:47:18.558Z,28.62
2023-05-14T08:48:18.624Z,28.64
2023-05-14T08:49:18.542Z,28.57
2023-05-14T08:50:19.914Z,28.56
2023-05-14T08:51:18.517Z,28.52
2023-05-14T08:52:18.524Z,28.56
2023-05-14T08:53:18.512Z,28.49
2023-05-14T08:54:18.526Z,28.44
2023-05-14T08:55:18.490Z,28.36
2023-05-14T08:56:18.496Z,28.36
2023-05-14T08:57:18.495Z,28.42
2023-05-14T08:58:18.487Z,28.35
2023-05-14T08:59:18.458Z,28.29
2023-05-14T09:00:18.466Z,28.26
2023-05-14T09:01:18.566Z,28.19
2023-05-14T09:02:18.454Z,28.20
2023-05-14T09:03:18.492Z,28.17
2023-05-14T09:04:18.562Z,28.13
2023-05-14T09:05:18.432Z,28.08
2023-05-14T09:06:18.405Z,28.02
2023-05-14T09:07:18.421Z,27.97
2023-05-14T09:08:18.392Z,27.89
2023-05-14T09:09:18.389Z,27.95
2023-05-14T09:10:18.397Z,27.84
2023-05-14T09:11:18.393Z,27.93
2023-05-14T09:12:18.377Z,27.83
2023-05-14T09:13:18.368Z,27.82
2023-05-14T09:14:18.370Z,27.75
2023-05-14T09:15:18.372Z,27.77
2023-05-14T09:16:18.410Z,27.74
2023-05-14T09:17:18.358Z,27.72
2023-05-14T09:18:18.354Z,27.67
2023-05-14T09:19:18.396Z,27.67
2023-05-14T09:20:18.329Z,27.72
2023-05-14T09:21:18.307Z,27.75
2023-05-14T09:22:18.299Z,27.73
2023-05-14T09:23:18.298Z,27.66
2023-05-14T09:24:18.300Z,27.69
2023-05-14T09:25:18.274Z,27.61
2023-05-14T09:26:18.269Z,27.60
2023-05-14T09:27:18.284Z,27.53
2023-05-14T09:28:18.276Z,27.55
2023-05-14T09:29:18.266Z,27.53
2023-05-14T09:30:18.260Z,27.48
2023-05-14T09:31:18.252Z,27.51
2023-05-14T09:32:18.238Z,27.49
2023-05-14T09:33:18.239Z,27.42
2023-05-14T09:34:18.224Z,27.53
2023-05-14T09:35:18.223Z,27.51
2023-05-14T09:36:18.211Z,27.54
2023-05-14T09:37:18.206Z,27.59
2023-05-14T09:38:18.197Z,27.59
2023-05-14T09:39:18.187Z,27.66
2023-05-14T09:40:18.192Z,27.79
2023-05-14T09:41:18.154Z,27.75
2023-05-14T09:42:18.222Z,27.77
2023-05-14T09:43:18.277Z,27.85
2023-05-14T09:44:18.339Z,27.81
2023-05-14T09:45:18.422Z,27.82
2023-05-14T09:46:18.488Z,27.82
2023-05-14T09:47:18.566Z,27.82
2023-05-14T09:48:18.623Z,27.85
2023-05-14T09:49:18.617Z,27.94
2023-05-14T09:50:18.710Z,27.98
2023-05-14T09:51:18.781Z,27.94
2023-05-14T09:52:18.822Z,27.95
2023-05-14T09:53:18.884Z,27.99
2023-05-14T09:54:18.921Z,27.99
2023-05-14T09:55:18.988Z,27.96
2023-05-14T09:56:19.076Z,28.05
2023-05-14T09:57:19.139Z,28.08
2023-05-14T09:58:19.181Z,28.04
2023-05-14T09:59:19.259Z,28.06
2023-05-14T10:00:19.313Z,28.03
2023-05-14T10:01:19.388Z,28.02
2023-05-14T10:02:19.404Z,28.05
2023-05-14T10:03:20.166Z,28.07
2023-05-14T10:04:19.592Z,28.07
2023-05-14T10:05:19.574Z,28.04
2023-05-14T10:06:19.648Z,28.04
2023-05-14T10:07:19.700Z,28.02
2023-05-14T10:08:19.757Z,27.99
2023-05-14T10:09:19.838Z,27.92
2023-05-14T10:10:19.940Z,27.89
2023-05-14T10:11:19.919Z,27.77
2023-05-14T10:12:20.000Z,27.70
2023-05-14T10:13:20.049Z,27.70
2023-05-14T10:14:20.100Z,27.73
2023-05-14T10:15:20.151Z,27.65
2023-05-14T10:16:20.294Z,27.64
2023-05-14T10:17:20.278Z,27.69
2023-05-14T10:18:20.313Z,27.64
2023-05-14T10:19:20.513Z,27.69
2023-05-14T10:20:20.444Z,27.68
2023-05-14T10:21:20.478Z,27.80
2023-05-14T10:22:20.538Z,27.80
2023-05-14T10:23:20.598Z,27.75
2023-05-14T10:24:20.642Z,27.74
2023-05-14T10:25:20.703Z,27.75
2023-05-14T10:26:23.106Z,27.77
2023-05-14T10:27:20.755Z,27.76
2023-05-14T10:28:20.756Z,27.81
2023-05-14T10:29:20.759Z,27.82
2023-05-14T10:30:20.729Z,27.82
2023-05-14T10:31:20.742Z,27.82
2023-05-14T10:32:20.758Z,27.80
2023-05-14T10:33:20.721Z,27.77
2023-05-14T10:34:20.699Z,27.82
2023-05-14T10:35:20.906Z,27.86
2023-05-14T10:36:20.710Z,27.89
2023-05-14T10:37:20.708Z,27.93
2023-05-14T10:38:20.686Z,27.95
2023-05-14T10:39:20.784Z,27.95
2023-05-14T10:40:20.671Z,28.01
2023-05-14T10:41:20.652Z,27.96
2023-05-14T10:42:20.653Z,28.00
2023-05-14T10:43:20.648Z,28.01
2023-05-14T10:44:20.644Z,28.01
2023-05-14T10:45:20.635Z,28.01
2023-05-14T10:46:20.674Z,27.99
2023-05-14T10:47:20.619Z,27.97
2023-05-14T10:48:20.643Z,28.02
2023-05-14T10:49:28.829Z,28.00
2023-05-14T10:50:21.732Z,28.01
2023-05-14T10:51:20.675Z,27.95
2023-05-14T10:52:20.618Z,28.02
2023-05-14T10:53:20.569Z,27.98
2023-05-14T10:54:20.564Z,27.98
2023-05-14T10:55:20.575Z,27.95
2023-05-14T10:56:20.553Z,27.98
2023-05-14T10:57:20.584Z,27.95
2023-05-14T10:58:20.588Z,27.92
2023-05-14T10:59:20.649Z,27.94
2023-05-14T11:00:20.714Z,27.92
2023-05-14T11:01:20.813Z,27.95
2023-05-14T11:02:20.857Z,27.92
2023-05-14T11:03:20.935Z,27.98
2023-05-14T11:04:20.941Z,27.99
2023-05-14T11:05:20.986Z,27.99
2023-05-14T11:06:21.043Z,27.97
2023-05-14T11:07:21.082Z,28.00
2023-05-14T11:08:22.502Z,28.07
2023-05-14T11:09:21.104Z,28.07
2023-05-14T11:10:21.186Z,28.04
2023-05-14T11:11:21.104Z,28.00
2023-05-14T11:12:21.085Z,28.00
2023-05-14T11:13:21.122Z,28.00
2023-05-14T11:14:21.063Z,27.95
2023-05-14T11:15:21.071Z,27.94
2023-05-14T11:16:23.550Z,27.97
2023-05-14T11:17:21.080Z,28.00
2023-05-14T11:18:21.039Z,28.03
2023-05-14T11:19:21.052Z,27.98
2023-05-14T11:20:21.066Z,27.97
2023-05-14T11:21:21.039Z,27.97
2023-05-14T11:22:21.014Z,28.00
2023-05-14T11:23:21.064Z,28.01
2023-05-14T11:24:21.010Z,28.00
2023-05-14T11:25:20.994Z,27.97
2023-05-14T11:26:21.904Z,28.00
2023-05-14T11:27:20.973Z,27.93
2023-05-14T11:28:20.993Z,28.00
2023-05-14T11:29:20.959Z,27.95
2023-05-14T11:30:21.040Z,28.02
2023-05-14T11:31:20.993Z,27.95
2023-05-14T11:32:21.141Z,28.01
2023-05-14T11:33:20.947Z,28.01
2023-05-14T11:34:20.946Z,28.04
2023-05-14T11:35:20.943Z,28.00
2023-05-14T11:36:20.926Z,28.02
2023-05-14T11:37:20.910Z,28.03
2023-05-14T11:38:20.903Z,28.01
2023-05-14T11:39:20.889Z,27.97
2023-05-14T11:40:20.891Z,27.98
2023-05-14T11:41:20.969Z,27.92
2023-05-14T11:42:20.881Z,27.91
2023-05-14T11:43:20.882Z,27.90
2023-05-14T11:44:20.869Z,27.91
2023-05-14T11:45:20.863Z,27.91
2023-05-14T11:46:20.890Z,27.85
2023-05-14T11:47:20.844Z,27.85
2023-05-14T11:48:20.841Z,27.91
2023-05-14T11:49:20.850Z,27.84
2023-05-14T11:50:20.809Z,27.90
2023-05-14T11:51:20.811Z,27.88
2023-05-14T11:52:20.807Z,27.90
2023-05-14T11:53:20.808Z,27.95
2023-05-14T11:54:20.785Z,27.97
2023-05-14T11:55:20.798Z,28.04
2023-05-14T11:56:20.766Z,28.04
2023-05-14T11:57:20.759Z,28.20
2023-05-14T11:58:20.770Z,28.28
2023-05-14T11:59:20.741Z,28.37
2023-05-14T12:00:20.744Z,28.47
2023-05-14T12:01:20.734Z,28.52
2023-05-14T12:02:20.766Z,28.70
2023-05-14T12:03:20.947Z,28.81
2023-05-14T12:04:20.781Z,28.91
2023-05-14T12:05:20.714Z,29.00
2023-05-14T12:06:20.690Z,29.10
2023-05-14T12:07:20.692Z,29.18
2023-05-14T12:08:20.691Z,29.23
2023-05-14T12:09:20.677Z,29.31
2023-05-14T12:10:20.682Z,29.42
2023-05-14T12:11:20.690Z,29.46
2023-05-14T12:12:20.668Z,29.51
2023-05-14T12:13:20.649Z,29.57
2023-05-14T12:14:20.649Z,29.57
2023-05-14T12:15:20.646Z,29.71
2023-05-14T12:16:20.687Z,29.75
2023-05-14T12:17:20.729Z,29.75
2023-05-14T12:18:24.621Z,29.75
2023-05-14T12:19:20.675Z,29.78
2023-05-14T12:20:20.645Z,29.79
2023-05-14T12:21:20.613Z,29.71
2023-05-14T12:22:20.601Z,29.75
2023-05-14T12:23:20.610Z,29.79
2023-05-14T12:24:20.577Z,29.77
2023-05-14T12:25:20.593Z,29.78
2023-05-14T12:26:20.579Z,29.74
2023-05-14T12:27:20.551Z,29.66
2023-05-14T12:28:20.548Z,29.64
2023-05-14T12:29:20.579Z,29.53
2023-05-14T12:30:22.138Z,29.48
2023-05-14T12:31:20.587Z,29.43
2023-05-14T12:32:20.516Z,29.37
2023-05-14T12:33:20.516Z,29.28
2023-05-14T12:34:20.511Z,29.23
2023-05-14T12:35:20.511Z,29.13
2023-05-14T12:36:22.176Z,29.23
2023-05-14T12:37:20.485Z,29.37
2023-05-14T12:38:20.486Z,29.39
2023-05-14T12:39:20.565Z,29.53
2023-05-14T12:40:20.478Z,29.50
2023-05-14T12:41:20.469Z,29.59
2023-05-14T12:42:20.452Z,29.62
2023-05-14T12:43:20.446Z,29.69
2023-05-14T12:44:20.541Z,29.71
2023-05-14T12:45:20.428Z,29.70
2023-05-14T12:46:20.485Z,29.73
2023-05-14T12:47:20.567Z,29.78
2023-05-14T12:48:20.433Z,29.81
2023-05-14T12:49:20.411Z,29.78
2023-05-14T12:50:20.396Z,29.78
2023-05-14T12:51:20.390Z,29.79
2023-05-14T12:52:33.344Z,29.89
2023-05-14T12:53:21.391Z,29.89